sensor_id;sensor_type;location;lat;lon;timestamp;temperature;humidity
51950;DHT22;37974;53.218;6.640;2023-05-10T00:00:34;13.40;99.90
51950;DHT22;37974;53.218;6.640;2023-05-10T00:02:59;13.40;99.90
51950;DHT22;37974;53.218;6.640;2023-05-10T00:05:25;13.40;99.90
51950;DHT22;37974;53.218;6.640;2023-05-10T00:07:51;13.30;99.90
51950;DHT22;37974;53.218;6.640;2023-05-10T00:10:16;13.30;99.90
51950;DHT22;37974;53.218;6.640;2023-05-10T00:12:42;13.20;99.90
51950;DHT22;37974;53.218;6.640;2023-05-10T00:15:08;13.20;99.90
51950;DHT22;37974;53.218;6.640;2023-05-10T00:17:34;13.20;99.90
51950;DHT22;37974;53.218;6.640;2023-05-10T00:20:00;13.20;99.90
51950;DHT22;37974;53.218;6.640;2023-05-10T00:22:26;13.20;99.90
51950;DHT22;37974;53.218;6.640;2023-05-10T00:24:51;13.20;99.90
51950;DHT22;37974;53.218;6.640;2023-05-10T00:27:17;13.10;99.90
51950;DHT22;37974;53.218;6.640;2023-05-10T00:29:43;13.10;99.90
51950;DHT22;37974;53.218;6.640;2023-05-10T00:32:08;13.20;99.90
51950;DHT22;37974;53.218;6.640;2023-05-10T00:34:34;13.20;99.90
51950;DHT22;37974;53.218;6.640;2023-05-10T00:37:00;13.10;99.90
51950;DHT22;37974;53.218;6.640;2023-05-10T00:39:26;13.10;99.90
51950;DHT22;37974;53.218;6.640;2023-05-10T00:41:53;13.10;99.90
51950;DHT22;37974;53.218;6.640;2023-05-10T00:44:20;13.10;99.90
51950;DHT22;37974;53.218;6.640;2023-05-10T00:46:46;13.10;99.90
51950;DHT22;37974;53.218;6.640;2023-05-10T00:49:12;13.10;99.90
51950;DHT22;37974;53.218;6.640;2023-05-10T00:51:38;13.10;99.90
51950;DHT22;37974;53.218;6.640;2023-05-10T00:54:04;13.10;99.90
51950;DHT22;37974;53.218;6.640;2023-05-10T00:56:30;13.00;99.90
51950;DHT22;37974;53.218;6.640;2023-05-10T00:58:56;13.00;99.90
51950;DHT22;37974;53.218;6.640;2023-05-10T01:01:22;13.00;99.90
51950;DHT22;37974;53.218;6.640;2023-05-10T01:03:48;13.00;99.90
51950;DHT22;37974;53.218;6.640;2023-05-10T01:06:14;13.00;99.90
51950;DHT22;37974;53.218;6.640;2023-05-10T01:08:39;13.00;99.90
51950;DHT22;37974;53.218;6.640;2023-05-10T01:11:06;13.00;99.90
51950;DHT22;37974;53.218;6.640;2023-05-10T01:13:35;13.00;99.90
51950;DHT22;37974;53.218;6.640;2023-05-10T01:16:01;12.90;99.90
51950;DHT22;37974;53.218;6.640;2023-05-10T01:18:29;12.90;99.90
51950;DHT22;37974;53.218;6.640;2023-05-10T01:21:04;12.90;99.90
51950;DHT22;37974;53.218;6.640;2023-05-10T01:32:15;12.90;99.90
51950;DHT22;37974;53.218;6.640;2023-05-10T01:34:58;12.90;99.90
51950;DHT22;37974;53.218;6.640;2023-05-10T01:37:29;12.80;99.90
51950;DHT22;37974;53.218;6.640;2023-05-10T01:40:03;12.80;99.90
51950;DHT22;37974;53.218;6.640;2023-05-10T01:42:39;12.70;99.90
51950;DHT22;37974;53.218;6.640;2023-05-10T01:45:22;12.70;99.90
51950;DHT22;37974;53.218;6.640;2023-05-10T01:47:58;12.70;99.90
51950;DHT22;37974;53.218;6.640;2023-05-10T01:50:29;12.70;99.90
51950;DHT22;37974;53.218;6.640;2023-05-10T01:52:57;12.70;99.90
51950;DHT22;37974;53.218;6.640;2023-05-10T01:55:26;12.70;99.90
51950;DHT22;37974;53.218;6.640;2023-05-10T01:58:00;12.70;99.90
51950;DHT22;37974;53.218;6.640;2023-05-10T02:00:27;12.60;99.90
51950;DHT22;37974;53.218;6.640;2023-05-10T02:02:54;12.60;99.90
51950;DHT22;37974;53.218;6.640;2023-05-10T02:05:21;12.60;99.90
51950;DHT22;37974;53.218;6.640;2023-05-10T02:07:49;12.60;99.90
51950;DHT22;37974;53.218;6.640;2023-05-10T02:10:15;12.60;99.90
51950;DHT22;37974;53.218;6.640;2023-05-10T02:12:44;12.60;99.90
51950;DHT22;37974;53.218;6.640;2023-05-10T02:15:12;12.60;99.90
51950;DHT22;37974;53.218;6.640;2023-05-10T02:17:39;12.60;99.90
51950;DHT22;37974;53.218;6.640;2023-05-10T02:20:06;12.50;99.90
51950;DHT22;37974;53.218;6.640;2023-05-10T02:22:33;12.60;99.90
51950;DHT22;37974;53.218;6.640;2023-05-10T02:25:00;12.50;99.90
51950;DHT22;37974;53.218;6.640;2023-05-10T02:27:28;12.50;99.90
51950;DHT22;37974;53.218;6.640;2023-05-10T02:29:54;12.60;99.90
51950;DHT22;37974;53.218;6.640;2023-05-10T02:32:21;12.60;99.90
51950;DHT22;37974;53.218;6.640;2023-05-10T02:34:49;12.50;99.90
51950;DHT22;37974;53.218;6.640;2023-05-10T02:37:19;12.50;99.90
51950;DHT22;37974;53.218;6.640;2023-05-10T02:39:47;12.50;99.90
51950;DHT22;37974;53.218;6.640;2023-05-10T02:42:18;12.50;99.90
51950;DHT22;37974;53.218;6.640;2023-05-10T02:44:47;12.50;99.90
51950;DHT22;37974;53.218;6.640;2023-05-10T02:47:13;12.50;99.90
51950;DHT22;37974;53.218;6.640;2023-05-10T02:49:39;12.50;99.90
51950;DHT22;37974;53.218;6.640;2023-05-10T02:52:05;12.50;99.90
51950;DHT22;37974;53.218;6.640;2023-05-10T02:54:41;12.50;99.90
51950;DHT22;37974;53.218;6.640;2023-05-10T02:57:14;12.50;99.90
51950;DHT22;37974;53.218;6.640;2023-05-10T02:59:40;12.50;99.90
51950;DHT22;37974;53.218;6.640;2023-05-10T03:02:09;12.50;99.90
51950;DHT22;37974;53.218;6.640;2023-05-10T03:04:35;12.40;99.90
51950;DHT22;37974;53.218;6.640;2023-05-10T03:07:02;12.50;99.90
51950;DHT22;37974;53.218;6.640;2023-05-10T03:09:28;12.50;99.90
51950;DHT22;37974;53.218;6.640;2023-05-10T03:12:03;12.50;99.90
51950;DHT22;37974;53.218;6.640;2023-05-10T03:14:47;12.50;99.90
51950;DHT22;37974;53.218;6.640;2023-05-10T03:17:25;12.40;99.90
51950;DHT22;37974;53.218;6.640;2023-05-10T03:19:55;12.50;99.90
51950;DHT22;37974;53.218;6.640;2023-05-10T03:22:26;12.50;99.90
51950;DHT22;37974;53.218;6.640;2023-05-10T03:24:56;12.50;99.90
51950;DHT22;37974;53.218;6.640;2023-05-10T03:27:24;12.50;99.90
51950;DHT22;37974;53.218;6.640;2023-05-10T03:29:53;12.50;99.90
51950;DHT22;37974;53.218;6.640;2023-05-10T03:32:19;12.50;99.90
51950;DHT22;37974;53.218;6.640;2023-05-10T03:34:45;12.50;99.90
51950;DHT22;37974;53.218;6.640;2023-05-10T03:37:10;12.50;99.90
51950;DHT22;37974;53.218;6.640;2023-05-10T03:39:36;12.50;99.90
51950;DHT22;37974;53.218;6.640;2023-05-10T03:42:02;12.40;99.90
51950;DHT22;37974;53.218;6.640;2023-05-10T03:44:28;12.50;99.90
51950;DHT22;37974;53.218;6.640;2023-05-10T03:46:53;12.50;99.90
51950;DHT22;37974;53.218;6.640;2023-05-10T03:49:19;12.50;99.90
51950;DHT22;37974;53.218;6.640;2023-05-10T03:51:45;12.50;99.90
51950;DHT22;37974;53.218;6.640;2023-05-10T03:54:10;12.50;99.90
51950;DHT22;37974;53.218;6.640;2023-05-10T03:56:36;12.50;99.90
51950;DHT22;37974;53.218;6.640;2023-05-10T03:59:02;12.50;99.90
51950;DHT22;37974;53.218;6.640;2023-05-10T04:01:33;12.50;99.90
51950;DHT22;37974;53.218;6.640;2023-05-10T04:03:59;12.50;99.90
51950;DHT22;37974;53.218;6.640;2023-05-10T04:06:24;12.50;99.90
51950;DHT22;37974;53.218;6.640;2023-05-10T04:08:50;12.50;99.90
51950;DHT22;37974;53.218;6.640;2023-05-10T04:11:16;12.50;99.90
51950;DHT22;37974;53.218;6.640;2023-05-10T04:13:41;12.50;99.90
51950;DHT22;37974;53.218;6.640;2023-05-10T04:16:08;12.50;99.90
51950;DHT22;37974;53.218;6.640;2023-05-10T04:18:34;12.50;99.90
51950;DHT22;37974;53.218;6.640;2023-05-10T04:21:00;12.50;99.90
51950;DHT22;37974;53.218;6.640;2023-05-10T04:23:27;12.50;99.90
51950;DHT22;37974;53.218;6.640;2023-05-10T04:25:52;12.50;99.90
51950;DHT22;37974;53.218;6.640;2023-05-10T04:28:24;12.50;99.90
51950;DHT22;37974;53.218;6.640;2023-05-10T04:30:49;12.50;99.90
51950;DHT22;37974;53.218;6.640;2023-05-10T04:33:15;12.40;99.90
51950;DHT22;37974;53.218;6.640;2023-05-10T04:35:41;12.40;99.90
51950;DHT22;37974;53.218;6.640;2023-05-10T04:38:07;12.40;99.90
51950;DHT22;37974;53.218;6.640;2023-05-10T04:40:32;12.40;99.90
51950;DHT22;37974;53.218;6.640;2023-05-10T04:42:58;12.40;99.90
51950;DHT22;37974;53.218;6.640;2023-05-10T04:45:24;12.40;99.90
51950;DHT22;37974;53.218;6.640;2023-05-10T04:47:49;12.40;99.90
51950;DHT22;37974;53.218;6.640;2023-05-10T04:50:15;12.30;99.90
51950;DHT22;37974;53.218;6.640;2023-05-10T04:52:41;12.40;99.90
51950;DHT22;37974;53.218;6.640;2023-05-10T04:55:07;12.40;99.90
51950;DHT22;37974;53.218;6.640;2023-05-10T04:57:35;12.30;99.90
51950;DHT22;37974;53.218;6.640;2023-05-10T05:00:00;12.40;99.90
51950;DHT22;37974;53.218;6.640;2023-05-10T05:02:26;12.30;99.90
51950;DHT22;37974;53.218;6.640;2023-05-10T05:04:51;12.30;99.90
51950;DHT22;37974;53.218;6.640;2023-05-10T05:07:17;12.30;99.90
51950;DHT22;37974;53.218;6.640;2023-05-10T05:09:43;12.30;99.90
51950;DHT22;37974;53.218;6.640;2023-05-10T05:12:09;12.30;99.90
51950;DHT22;37974;53.218;6.640;2023-05-10T05:14:39;12.30;99.90
51950;DHT22;37974;53.218;6.640;2023-05-10T05:17:05;12.30;99.90
51950;DHT22;37974;53.218;6.640;2023-05-10T05:19:31;12.30;99.90
51950;DHT22;37974;53.218;6.640;2023-05-10T05:21:57;12.20;99.90
51950;DHT22;37974;53.218;6.640;2023-05-10T05:24:35;12.30;99.90
51950;DHT22;37974;53.218;6.640;2023-05-10T05:27:01;12.30;99.90
51950;DHT22;37974;53.218;6.640;2023-05-10T05:29:27;12.30;99.90
51950;DHT22;37974;53.218;6.640;2023-05-10T05:31:53;12.30;99.90
51950;DHT22;37974;53.218;6.640;2023-05-10T05:34:18;12.30;99.90
51950;DHT22;37974;53.218;6.640;2023-05-10T05:36:46;12.30;99.90
51950;DHT22;37974;53.218;6.640;2023-05-10T05:39:11;12.40;99.90
51950;DHT22;37974;53.218;6.640;2023-05-10T05:41:37;12.40;99.90
51950;DHT22;37974;53.218;6.640;2023-05-10T05:44:03;12.70;99.90
51950;DHT22;37974;53.218;6.640;2023-05-10T05:46:28;12.50;99.90
51950;DHT22;37974;53.218;6.640;2023-05-10T05:48:54;12.40;99.90
51950;DHT22;37974;53.218;6.640;2023-05-10T05:51:20;12.40;99.90
51950;DHT22;37974;53.218;6.640;2023-05-10T05:53:46;12.50;99.90
51950;DHT22;37974;53.218;6.640;2023-05-10T05:56:11;12.50;99.90
51950;DHT22;37974;53.218;6.640;2023-05-10T05:58:37;12.50;99.90
51950;DHT22;37974;53.218;6.640;2023-05-10T06:01:03;12.50;99.90
51950;DHT22;37974;53.218;6.640;2023-05-10T06:03:31;12.50;99.90
51950;DHT22;37974;53.218;6.640;2023-05-10T06:05:58;12.50;99.90
51950;DHT22;37974;53.218;6.640;2023-05-10T06:08:23;12.50;99.90
51950;DHT22;37974;53.218;6.640;2023-05-10T06:10:55;12.50;99.90
51950;DHT22;37974;53.218;6.640;2023-05-10T06:13:24;12.50;99.90
51950;DHT22;37974;53.218;6.640;2023-05-10T06:15:49;12.50;99.90
51950;DHT22;37974;53.218;6.640;2023-05-10T06:18:16;12.60;99.90
51950;DHT22;37974;53.218;6.640;2023-05-10T06:20:42;12.60;99.90
51950;DHT22;37974;53.218;6.640;2023-05-10T06:23:08;12.60;99.90
51950;DHT22;37974;53.218;6.640;2023-05-10T06:25:34;12.50;99.90
51950;DHT22;37974;53.218;6.640;2023-05-10T06:27:59;12.40;99.90
51950;DHT22;37974;53.218;6.640;2023-05-10T06:30:25;12.50;99.90
51950;DHT22;37974;53.218;6.640;2023-05-10T06:32:54;12.60;99.90
51950;DHT22;37974;53.218;6.640;2023-05-10T06:35:19;12.50;99.90
51950;DHT22;37974;53.218;6.640;2023-05-10T06:37:45;12.60;99.90
51950;DHT22;37974;53.218;6.640;2023-05-10T06:40:12;12.60;99.90
51950;DHT22;37974;53.218;6.640;2023-05-10T06:42:37;12.50;99.90
51950;DHT22;37974;53.218;6.640;2023-05-10T06:45:03;12.50;99.90
51950;DHT22;37974;53.218;6.640;2023-05-10T06:47:29;12.60;99.90
51950;DHT22;37974;53.218;6.640;2023-05-10T06:49:55;12.50;99.90
51950;DHT22;37974;53.218;6.640;2023-05-10T06:52:21;12.50;99.90
51950;DHT22;37974;53.218;6.640;2023-05-10T06:54:46;12.50;99.90
51950;DHT22;37974;53.218;6.640;2023-05-10T06:57:12;12.40;99.90
51950;DHT22;37974;53.218;6.640;2023-05-10T06:59:38;12.40;99.90
51950;DHT22;37974;53.218;6.640;2023-05-10T07:02:03;12.40;99.90
51950;DHT22;37974;53.218;6.640;2023-05-10T07:04:29;12.40;99.90
51950;DHT22;37974;53.218;6.640;2023-05-10T07:06:55;12.30;99.90
51950;DHT22;37974;53.218;6.640;2023-05-10T07:09:21;12.30;99.90
51950;DHT22;37974;53.218;6.640;2023-05-10T07:11:47;12.30;99.90
51950;DHT22;37974;53.218;6.640;2023-05-10T07:14:12;12.30;99.90
51950;DHT22;37974;53.218;6.640;2023-05-10T07:16:38;12.30;99.90
51950;DHT22;37974;53.218;6.640;2023-05-10T07:19:04;12.30;99.90
51950;DHT22;37974;53.218;6.640;2023-05-10T07:21:30;12.30;99.90
51950;DHT22;37974;53.218;6.640;2023-05-10T07:23:56;12.30;99.90
51950;DHT22;37974;53.218;6.640;2023-05-10T07:26:22;12.30;99.90
51950;DHT22;37974;53.218;6.640;2023-05-10T07:28:48;12.30;99.90
51950;DHT22;37974;53.218;6.640;2023-05-10T07:31:14;12.30;99.90
51950;DHT22;37974;53.218;6.640;2023-05-10T07:33:39;12.30;99.90
51950;DHT22;37974;53.218;6.640;2023-05-10T07:36:05;12.40;99.90
51950;DHT22;37974;53.218;6.640;2023-05-10T07:38:31;12.40;99.90
51950;DHT22;37974;53.218;6.640;2023-05-10T07:40:57;12.50;99.90
51950;DHT22;37974;53.218;6.640;2023-05-10T07:43:22;12.60;99.90
51950;DHT22;37974;53.218;6.640;2023-05-10T07:45:48;12.60;99.90
51950;DHT22;37974;53.218;6.640;2023-05-10T07:48:14;12.70;99.90
51950;DHT22;37974;53.218;6.640;2023-05-10T07:50:40;12.80;99.90
51950;DHT22;37974;53.218;6.640;2023-05-10T07:53:05;12.80;99.90
51950;DHT22;37974;53.218;6.640;2023-05-10T07:55:31;13.00;99.90
51950;DHT22;37974;53.218;6.640;2023-05-10T07:57:57;13.00;99.90
51950;DHT22;37974;53.218;6.640;2023-05-10T08:00:23;13.00;99.90
51950;DHT22;37974;53.218;6.640;2023-05-10T08:02:48;13.00;99.90
51950;DHT22;37974;53.218;6.640;2023-05-10T08:05:14;13.00;99.90
51950;DHT22;37974;53.218;6.640;2023-05-10T08:07:40;13.10;99.90
51950;DHT22;37974;53.218;6.640;2023-05-10T08:10:06;13.00;99.90
51950;DHT22;37974;53.218;6.640;2023-05-10T08:12:32;13.00;99.90
51950;DHT22;37974;53.218;6.640;2023-05-10T08:14:58;13.00;99.90
51950;DHT22;37974;53.218;6.640;2023-05-10T08:17:24;13.00;99.90
51950;DHT22;37974;53.218;6.640;2023-05-10T08:19:50;13.00;99.90
51950;DHT22;37974;53.218;6.640;2023-05-10T08:22:15;13.00;99.90
51950;DHT22;37974;53.218;6.640;2023-05-10T08:24:41;13.00;99.90
51950;DHT22;37974;53.218;6.640;2023-05-10T08:27:08;13.00;99.90
51950;DHT22;37974;53.218;6.640;2023-05-10T08:29:34;12.90;99.90
51950;DHT22;37974;53.218;6.640;2023-05-10T08:32:00;12.90;99.90
51950;DHT22;37974;53.218;6.640;2023-05-10T08:34:26;12.90;99.90
51950;DHT22;37974;53.218;6.640;2023-05-10T08:36:52;13.00;99.90
51950;DHT22;37974;53.218;6.640;2023-05-10T08:39:18;13.00;99.90
51950;DHT22;37974;53.218;6.640;2023-05-10T08:41:45;13.00;99.90
51950;DHT22;37974;53.218;6.640;2023-05-10T08:44:12;13.00;99.90
51950;DHT22;37974;53.218;6.640;2023-05-10T08:46:41;13.10;99.90
51950;DHT22;37974;53.218;6.640;2023-05-10T08:49:13;13.10;99.90
51950;DHT22;37974;53.218;6.640;2023-05-10T08:51:43;13.10;99.90
51950;DHT22;37974;53.218;6.640;2023-05-10T08:54:09;13.10;99.90
51950;DHT22;37974;53.218;6.640;2023-05-10T08:56:36;13.10;99.90
51950;DHT22;37974;53.218;6.640;2023-05-10T08:59:02;13.10;99.90
51950;DHT22;37974;53.218;6.640;2023-05-10T09:01:28;13.10;99.90
51950;DHT22;37974;53.218;6.640;2023-05-10T09:03:57;13.10;99.90
51950;DHT22;37974;53.218;6.640;2023-05-10T09:06:23;13.20;99.90
51950;DHT22;37974;53.218;6.640;2023-05-10T09:08:50;13.20;99.90
51950;DHT22;37974;53.218;6.640;2023-05-10T09:11:16;13.20;99.90
51950;DHT22;37974;53.218;6.640;2023-05-10T09:13:42;13.20;99.90
51950;DHT22;37974;53.218;6.640;2023-05-10T09:16:09;13.20;99.90
51950;DHT22;37974;53.218;6.640;2023-05-10T09:18:35;13.20;99.90
51950;DHT22;37974;53.218;6.640;2023-05-10T09:21:00;13.20;99.90
51950;DHT22;37974;53.218;6.640;2023-05-10T09:23:26;13.20;99.90
51950;DHT22;37974;53.218;6.640;2023-05-10T09:26:02;13.30;99.90
51950;DHT22;37974;53.218;6.640;2023-05-10T09:28:34;13.40;99.90
51950;DHT22;37974;53.218;6.640;2023-05-10T09:31:15;13.50;99.90
51950;DHT22;37974;53.218;6.640;2023-05-10T09:33:45;13.60;99.90
51950;DHT22;37974;53.218;6.640;2023-05-10T09:36:12;13.70;99.90
51950;DHT22;37974;53.218;6.640;2023-05-10T09:38:48;13.70;99.90
51950;DHT22;37974;53.218;6.640;2023-05-10T09:41:19;13.80;99.90
51950;DHT22;37974;53.218;6.640;2023-05-10T09:43:46;13.90;99.90
51950;DHT22;37974;53.218;6.640;2023-05-10T09:46:11;14.00;99.90
51950;DHT22;37974;53.218;6.640;2023-05-10T09:48:44;14.10;99.90
51950;DHT22;37974;53.218;6.640;2023-05-10T09:51:10;14.10;99.90
51950;DHT22;37974;53.218;6.640;2023-05-10T09:53:36;14.20;99.90
51950;DHT22;37974;53.218;6.640;2023-05-10T09:56:02;14.10;99.90
51950;DHT22;37974;53.218;6.640;2023-05-10T09:58:28;14.20;99.90
51950;DHT22;37974;53.218;6.640;2023-05-10T10:00:53;14.10;99.90
51950;DHT22;37974;53.218;6.640;2023-05-10T10:03:20;14.20;99.90
51950;DHT22;37974;53.218;6.640;2023-05-10T10:05:48;14.10;99.90
51950;DHT22;37974;53.218;6.640;2023-05-10T10:08:14;14.20;99.90
51950;DHT22;37974;53.218;6.640;2023-05-10T10:10:41;14.30;99.90
51950;DHT22;37974;53.218;6.640;2023-05-10T10:13:07;14.20;99.90
51950;DHT22;37974;53.218;6.640;2023-05-10T10:15:34;14.20;99.90
51950;DHT22;37974;53.218;6.640;2023-05-10T10:18:00;14.20;99.90
51950;DHT22;37974;53.218;6.640;2023-05-10T10:20:27;14.10;99.90
51950;DHT22;37974;53.218;6.640;2023-05-10T10:22:53;14.20;99.90
51950;DHT22;37974;53.218;6.640;2023-05-10T10:25:20;14.20;99.90
51950;DHT22;37974;53.218;6.640;2023-05-10T10:28:00;14.30;99.90
51950;DHT22;37974;53.218;6.640;2023-05-10T10:30:43;14.50;99.90
51950;DHT22;37974;53.218;6.640;2023-05-10T10:33:33;14.60;99.90
51950;DHT22;37974;53.218;6.640;2023-05-10T10:36:02;14.80;99.90
51950;DHT22;37974;53.218;6.640;2023-05-10T10:38:37;15.00;99.90
51950;DHT22;37974;53.218;6.640;2023-05-10T10:41:10;15.00;99.90
51950;DHT22;37974;53.218;6.640;2023-05-10T10:43:37;15.20;99.90
51950;DHT22;37974;53.218;6.640;2023-05-10T10:46:18;15.20;99.90
51950;DHT22;37974;53.218;6.640;2023-05-10T10:48:50;15.30;99.90
51950;DHT22;37974;53.218;6.640;2023-05-10T10:51:17;15.40;99.90
51950;DHT22;37974;53.218;6.640;2023-05-10T10:53:43;15.40;99.90
51950;DHT22;37974;53.218;6.640;2023-05-10T10:56:11;15.40;99.90
51950;DHT22;37974;53.218;6.640;2023-05-10T10:58:39;15.50;99.90
51950;DHT22;37974;53.218;6.640;2023-05-10T11:01:17;15.60;99.90
51950;DHT22;37974;53.218;6.640;2023-05-10T11:06:30;15.60;99.90
51950;DHT22;37974;53.218;6.640;2023-05-10T11:08:58;15.70;99.90
51950;DHT22;37974;53.218;6.640;2023-05-10T11:11:24;15.70;99.90
51950;DHT22;37974;53.218;6.640;2023-05-10T11:13:51;15.70;99.90
51950;DHT22;37974;53.218;6.640;2023-05-10T11:19:06;15.70;99.90
51950;DHT22;37974;53.218;6.640;2023-05-10T11:21:34;15.70;99.90
51950;DHT22;37974;53.218;6.640;2023-05-10T11:24:14;15.60;99.90
51950;DHT22;37974;53.218;6.640;2023-05-10T11:26:40;15.70;99.90
51950;DHT22;37974;53.218;6.640;2023-05-10T11:29:06;15.80;99.90
51950;DHT22;37974;53.218;6.640;2023-05-10T11:31:32;15.70;99.90
51950;DHT22;37974;53.218;6.640;2023-05-10T11:33:59;15.80;99.90
51950;DHT22;37974;53.218;6.640;2023-05-10T11:36:28;15.80;99.90
51950;DHT22;37974;53.218;6.640;2023-05-10T11:38:55;15.90;99.90
51950;DHT22;37974;53.218;6.640;2023-05-10T11:41:22;16.00;99.90
51950;DHT22;37974;53.218;6.640;2023-05-10T11:43:51;16.00;99.90
51950;DHT22;37974;53.218;6.640;2023-05-10T11:46:20;16.00;99.90
51950;DHT22;37974;53.218;6.640;2023-05-10T11:48:51;16.10;99.90
51950;DHT22;37974;53.218;6.640;2023-05-10T11:51:21;16.20;99.90
51950;DHT22;37974;53.218;6.640;2023-05-10T11:53:49;16.20;99.90
51950;DHT22;37974;53.218;6.640;2023-05-10T11:56:15;16.20;99.90
51950;DHT22;37974;53.218;6.640;2023-05-10T11:58:41;16.20;99.90
51950;DHT22;37974;53.218;6.640;2023-05-10T12:01:08;16.20;99.90
51950;DHT22;37974;53.218;6.640;2023-05-10T12:03:34;16.20;99.90
51950;DHT22;37974;53.218;6.640;2023-05-10T12:06:00;16.20;99.90
51950;DHT22;37974;53.218;6.640;2023-05-10T12:08:28;16.30;99.90
51950;DHT22;37974;53.218;6.640;2023-05-10T12:11:07;16.30;99.90
51950;DHT22;37974;53.218;6.640;2023-05-10T12:13:39;16.40;99.90
51950;DHT22;37974;53.218;6.640;2023-05-10T12:16:17;16.30;99.90
51950;DHT22;37974;53.218;6.640;2023-05-10T12:18:43;16.20;99.90
51950;DHT22;37974;53.218;6.640;2023-05-10T12:21:12;16.10;99.90
51950;DHT22;37974;53.218;6.640;2023-05-10T12:23:39;15.90;99.90
51950;DHT22;37974;53.218;6.640;2023-05-10T12:26:05;15.80;99.90
51950;DHT22;37974;53.218;6.640;2023-05-10T12:28:32;15.80;99.90
51950;DHT22;37974;53.218;6.640;2023-05-10T12:30:59;15.70;99.90
51950;DHT22;37974;53.218;6.640;2023-05-10T12:33:25;15.60;99.90
51950;DHT22;37974;53.218;6.640;2023-05-10T12:35:53;15.50;99.90
51950;DHT22;37974;53.218;6.640;2023-05-10T12:38:27;15.40;99.90
51950;DHT22;37974;53.218;6.640;2023-05-10T12:40:57;15.30;99.90
51950;DHT22;37974;53.218;6.640;2023-05-10T12:43:22;15.30;99.90
51950;DHT22;37974;53.218;6.640;2023-05-10T12:45:48;15.30;99.90
51950;DHT22;37974;53.218;6.640;2023-05-10T12:48:15;15.20;99.90
51950;DHT22;37974;53.218;6.640;2023-05-10T12:50:41;15.20;99.90
51950;DHT22;37974;53.218;6.640;2023-05-10T12:53:06;15.20;99.90
51950;DHT22;37974;53.218;6.640;2023-05-10T12:55:32;15.20;99.90
51950;DHT22;37974;53.218;6.640;2023-05-10T12:57:58;15.30;99.90
51950;DHT22;37974;53.218;6.640;2023-05-10T13:00:24;15.30;99.90
51950;DHT22;37974;53.218;6.640;2023-05-10T13:02:50;15.30;99.90
51950;DHT22;37974;53.218;6.640;2023-05-10T13:05:15;15.40;99.90
51950;DHT22;37974;53.218;6.640;2023-05-10T13:07:41;15.40;99.90
51950;DHT22;37974;53.218;6.640;2023-05-10T13:10:09;15.50;99.90
51950;DHT22;37974;53.218;6.640;2023-05-10T13:12:36;15.50;99.90
51950;DHT22;37974;53.218;6.640;2023-05-10T13:15:02;15.50;99.90
51950;DHT22;37974;53.218;6.640;2023-05-10T13:17:28;15.40;99.90
51950;DHT22;37974;53.218;6.640;2023-05-10T13:19:54;15.40;99.90
51950;DHT22;37974;53.218;6.640;2023-05-10T13:22:20;15.50;99.90
51950;DHT22;37974;53.218;6.640;2023-05-10T13:24:46;15.70;99.90
51950;DHT22;37974;53.218;6.640;2023-05-10T13:27:11;15.70;99.90
51950;DHT22;37974;53.218;6.640;2023-05-10T13:29:39;15.80;99.90
51950;DHT22;37974;53.218;6.640;2023-05-10T13:32:05;15.80;99.90
51950;DHT22;37974;53.218;6.640;2023-05-10T13:34:31;15.80;99.90
51950;DHT22;37974;53.218;6.640;2023-05-10T13:36:57;15.90;99.90
51950;DHT22;37974;53.218;6.640;2023-05-10T13:39:23;15.80;99.90
51950;DHT22;37974;53.218;6.640;2023-05-10T13:41:49;15.80;99.90
51950;DHT22;37974;53.218;6.640;2023-05-10T13:44:15;15.70;99.90
51950;DHT22;37974;53.218;6.640;2023-05-10T13:46:41;15.60;99.90
51950;DHT22;37974;53.218;6.640;2023-05-10T13:49:09;15.60;99.90
51950;DHT22;37974;53.218;6.640;2023-05-10T13:51:35;15.60;99.90
51950;DHT22;37974;53.218;6.640;2023-05-10T13:54:02;15.50;99.90
51950;DHT22;37974;53.218;6.640;2023-05-10T13:56:28;15.60;99.90
51950;DHT22;37974;53.218;6.640;2023-05-10T13:58:53;15.60;99.90
51950;DHT22;37974;53.218;6.640;2023-05-10T14:01:22;15.60;99.90
51950;DHT22;37974;53.218;6.640;2023-05-10T14:03:48;15.50;99.90
51950;DHT22;37974;53.218;6.640;2023-05-10T14:06:14;15.50;99.90
51950;DHT22;37974;53.218;6.640;2023-05-10T14:08:40;15.40;99.90
51950;DHT22;37974;53.218;6.640;2023-05-10T14:11:06;15.40;99.90
51950;DHT22;37974;53.218;6.640;2023-05-10T14:13:33;15.40;99.90
51950;DHT22;37974;53.218;6.640;2023-05-10T14:15:58;15.30;99.90
51950;DHT22;37974;53.218;6.640;2023-05-10T14:18:26;15.40;99.90
51950;DHT22;37974;53.218;6.640;2023-05-10T14:20:52;15.40;99.90
51950;DHT22;37974;53.218;6.640;2023-05-10T14:23:18;15.50;99.90
51950;DHT22;37974;53.218;6.640;2023-05-10T14:25:49;15.60;99.90
51950;DHT22;37974;53.218;6.640;2023-05-10T14:28:16;15.70;99.90
51950;DHT22;37974;53.218;6.640;2023-05-10T14:30:43;15.70;99.90
51950;DHT22;37974;53.218;6.640;2023-05-10T14:33:09;15.80;99.90
51950;DHT22;37974;53.218;6.640;2023-05-10T14:35:35;15.90;99.90
51950;DHT22;37974;53.218;6.640;2023-05-10T14:38:02;15.90;99.90
51950;DHT22;37974;53.218;6.640;2023-05-10T14:40:29;16.00;99.90
51950;DHT22;37974;53.218;6.640;2023-05-10T14:42:55;16.00;99.90
51950;DHT22;37974;53.218;6.640;2023-05-10T14:45:22;16.00;99.90
51950;DHT22;37974;53.218;6.640;2023-05-10T14:47:49;16.00;99.90
51950;DHT22;37974;53.218;6.640;2023-05-10T14:50:15;16.00;99.90
51950;DHT22;37974;53.218;6.640;2023-05-10T14:52:42;16.10;99.90
51950;DHT22;37974;53.218;6.640;2023-05-10T14:55:08;16.20;99.90
51950;DHT22;37974;53.218;6.640;2023-05-10T14:57:34;16.30;99.90
51950;DHT22;37974;53.218;6.640;2023-05-10T14:59:59;16.40;99.90
51950;DHT22;37974;53.218;6.640;2023-05-10T15:02:25;16.50;99.90
51950;DHT22;37974;53.218;6.640;2023-05-10T15:04:51;16.60;99.90
51950;DHT22;37974;53.218;6.640;2023-05-10T15:07:17;16.70;99.90
51950;DHT22;37974;53.218;6.640;2023-05-10T15:09:44;16.70;99.90
51950;DHT22;37974;53.218;6.640;2023-05-10T15:12:10;16.80;99.90
51950;DHT22;37974;53.218;6.640;2023-05-10T15:14:36;16.90;99.90
51950;DHT22;37974;53.218;6.640;2023-05-10T15:17:06;16.90;99.90
51950;DHT22;37974;53.218;6.640;2023-05-10T15:19:33;16.90;99.90
51950;DHT22;37974;53.218;6.640;2023-05-10T15:21:58;17.00;99.90
51950;DHT22;37974;53.218;6.640;2023-05-10T15:24:25;16.90;99.90
51950;DHT22;37974;53.218;6.640;2023-05-10T15:26:50;16.90;99.90
51950;DHT22;37974;53.218;6.640;2023-05-10T15:29:16;16.90;99.90
51950;DHT22;37974;53.218;6.640;2023-05-10T15:31:54;16.80;99.90
51950;DHT22;37974;53.218;6.640;2023-05-10T15:35:04;16.80;99.90
51950;DHT22;37974;53.218;6.640;2023-05-10T15:38:01;16.80;99.90
51950;DHT22;37974;53.218;6.640;2023-05-10T15:40:56;16.60;99.90
51950;DHT22;37974;53.218;6.640;2023-05-10T15:43:25;16.70;99.90
51950;DHT22;37974;53.218;6.640;2023-05-10T15:46:16;16.70;99.90